createdAt,value
2023-01-18T00:03:29.294Z,53.40
2023-01-18T00:08:33.077Z,55.63
2023-01-18T00:13:35.870Z,54.00
2023-01-18T00:18:38.374Z,53.27
2023-01-18T00:23:40.705Z,55.03
2023-01-18T00:28:43.253Z,58.00
2023-01-18T00:33:47.230Z,79.63
2023-01-18T00:38:53.961Z,69.07
2023-01-18T00:43:56.684Z,64.97
2023-01-18T00:48:59.490Z,61.67
2023-01-18T00:54:01.883Z,60.93
2023-01-18T00:59:04.238Z,58.53
2023-01-18T01:04:25.095Z,51.63
2023-01-18T01:09:30.176Z,47.07
2023-01-18T01:14:53.551Z,51.57
2023-01-18T01:20:14.297Z,50.47
2023-01-18T01:25:35.190Z,50.97
2023-01-18T01:30:37.565Z,49.63
2023-01-18T01:35:40.213Z,47.27
2023-01-18T01:40:42.575Z,47.47
2023-01-18T01:45:44.987Z,47.67
2023-01-18T01:50:47.876Z,43.47
2023-01-18T01:55:50.200Z,40.03
2023-01-18T02:00:54.308Z,39.97
2023-01-18T02:06:08.282Z,39.70
2023-01-18T02:11:10.677Z,41.73
2023-01-18T02:16:37.681Z,33.20
2023-01-18T02:21:45.971Z,37.57
2023-01-18T02:27:01.423Z,32.13
2023-01-18T02:32:22.495Z,36.27
2023-01-18T02:37:24.786Z,31.97
2023-01-18T02:42:46.971Z,31.07
2023-01-18T02:47:50.557Z,31.87
2023-01-18T02:52:54.233Z,33.93
2023-01-18T02:58:15.279Z,32.70
2023-01-18T03:03:20.079Z,32.53
2023-01-18T03:08:28.312Z,31.97
2023-01-18T03:13:47.905Z,34.27
2023-01-18T03:19:00.353Z,33.40
2023-01-18T03:24:06.794Z,34.00
2023-01-18T03:29:29.293Z,33.47
2023-01-18T03:34:52.688Z,33.23
2023-01-18T03:40:00.181Z,31.57
2023-01-18T03:45:20.591Z,30.90
2023-01-18T03:50:28.433Z,30.97
2023-01-18T03:55:41.502Z,31.70
2023-01-18T04:00:44.133Z,30.83
2023-01-18T04:05:46.506Z,30.90
2023-01-18T04:11:25.635Z,31.07
2023-01-18T04:16:27.973Z,31.23
2023-01-18T04:21:30.312Z,29.50
2023-01-18T04:26:34.370Z,28.23
2023-01-18T04:31:36.819Z,27.20
2023-01-18T04:36:39.145Z,28.90
2023-01-18T04:41:41.566Z,27.47
2023-01-18T04:46:44.116Z,26.90
2023-01-18T04:51:47.249Z,26.40
2023-01-18T04:56:49.800Z,28.57
2023-01-18T05:01:52.185Z,26.70
2023-01-18T05:06:54.572Z,26.20
2023-01-18T05:11:56.904Z,26.17
2023-01-18T05:16:59.229Z,24.30
2023-01-18T05:22:01.543Z,26.50
2023-01-18T05:27:04.223Z,22.93
2023-01-18T05:32:06.628Z,23.57
2023-01-18T05:37:09.124Z,25.07
2023-01-18T05:42:11.435Z,23.93
2023-01-18T05:47:13.772Z,27.03
2023-01-18T05:52:17.063Z,24.30
2023-01-18T05:57:19.532Z,26.00
2023-01-18T06:02:21.876Z,25.03
2023-01-18T06:07:24.196Z,24.90
2023-01-18T06:12:26.559Z,23.37
2023-01-18T06:17:31.359Z,24.70
2023-01-18T06:22:33.733Z,24.47
2023-01-18T06:27:37.664Z,34.50
2023-01-18T06:32:40.056Z,26.17
2023-01-18T06:37:42.527Z,28.67
2023-01-18T06:42:48.804Z,26.03
2023-01-18T06:47:52.465Z,26.97
2023-01-18T06:52:56.044Z,29.53
2023-01-18T06:58:03.239Z,29.13
2023-01-18T07:03:05.696Z,30.47
2023-01-18T07:08:08.030Z,26.43
2023-01-18T07:13:10.379Z,26.13
2023-01-18T07:18:12.775Z,28.97
2023-01-18T07:23:15.128Z,30.27
2023-01-18T07:28:17.520Z,27.93
2023-01-18T07:33:19.911Z,28.00
2023-01-18T07:38:23.195Z,30.87
2023-01-18T07:43:25.588Z,25.67
2023-01-18T07:48:28.705Z,24.33
2023-01-18T07:53:33.137Z,27.23
2023-01-18T07:58:36.688Z,28.53
2023-01-18T08:03:39.686Z,29.23
2023-01-18T08:08:42.113Z,39.10
2023-01-18T08:13:44.632Z,31.50
2023-01-18T08:18:49.766Z,28.40
2023-01-18T08:23:55.213Z,39.33
2023-01-18T08:28:59.120Z,26.43
2023-01-18T08:34:02.357Z,58.17
2023-01-18T08:39:04.782Z,30.50
2023-01-18T08:44:07.233Z,38.30
2023-01-18T08:49:12.746Z,38.13
2023-01-18T08:54:15.124Z,41.50
2023-01-18T08:59:17.847Z,44.30
2023-01-18T09:04:20.338Z,48.03
2023-01-18T09:09:22.883Z,90.57
2023-01-18T09:14:25.251Z,50.47
2023-01-18T09:19:27.639Z,46.93
2023-01-18T09:24:30.074Z,43.57
2023-01-18T09:29:32.497Z,41.53
2023-01-18T09:34:35.817Z,45.20
2023-01-18T09:39:51.017Z,53.40
2023-01-18T09:44:58.927Z,65.07
2023-01-18T09:50:16.773Z,43.77
2023-01-18T09:55:33.644Z,74.27
2023-01-18T10:00:42.549Z,37.67
2023-01-18T10:06:09.964Z,41.30
2023-01-18T10:11:25.063Z,45.70
2023-01-18T10:16:27.617Z,36.47
2023-01-18T10:21:54.717Z,32.47
2023-01-18T10:27:17.380Z,30.37
2023-01-18T10:32:23.765Z,30.80
2023-01-18T10:37:45.331Z,31.93
2023-01-18T10:42:51.246Z,42.60
2023-01-18T10:47:55.615Z,40.23
2023-01-18T10:52:58.331Z,41.40
2023-01-18T10:58:02.319Z,39.33
2023-01-18T11:03:06.228Z,37.50
2023-01-18T11:08:34.464Z,36.13
2023-01-18T11:13:39.787Z,43.83
2023-01-18T11:19:09.133Z,50.33
2023-01-18T11:24:24.839Z,40.93
2023-01-18T11:29:34.523Z,49.57
2023-01-18T11:34:43.806Z,28.33
2023-01-18T11:39:46.212Z,31.27
2023-01-18T11:44:57.759Z,32.90
2023-01-18T11:50:21.086Z,34.93
2023-01-18T11:55:38.239Z,73.47
2023-01-18T12:00:58.849Z,44.17
2023-01-18T12:06:23.221Z,51.00
2023-01-18T12:11:28.585Z,111.10
2023-01-18T12:16:46.044Z,50.93
2023-01-18T12:22:09.572Z,44.43
2023-01-18T12:27:24.203Z,51.33
2023-01-18T12:32:49.674Z,49.13
2023-01-18T12:38:41.581Z,40.37
2023-01-18T12:43:44.718Z,52.63
2023-01-18T12:48:53.444Z,71.23
2023-01-18T12:54:17.100Z,61.73
2023-01-18T12:59:24.235Z,67.60
2023-01-18T13:04:29.439Z,64.17
2023-01-18T13:09:37.687Z,77.30
2023-01-18T13:15:07.395Z,55.07
2023-01-18T13:20:10.275Z,126.47
2023-01-18T13:25:26.367Z,61.00
2023-01-18T13:31:01.942Z,72.33
2023-01-18T13:36:13.653Z,43.77
2023-01-18T13:41:26.440Z,54.47
2023-01-18T13:46:31.689Z,79.47
2023-01-18T13:51:37.183Z,59.53
2023-01-18T13:56:40.047Z,60.27
2023-01-18T14:01:44.856Z,60.00
2023-01-18T14:06:48.111Z,46.60
2023-01-18T14:11:55.039Z,44.67
2023-01-18T14:17:12.382Z,38.40
2023-01-18T14:22:41.652Z,35.60
2023-01-18T14:27:50.212Z,43.13
2023-01-18T14:33:17.644Z,45.37
2023-01-18T14:38:20.674Z,37.03
2023-01-18T14:43:33.243Z,52.80
2023-01-18T14:48:43.645Z,31.83
2023-01-18T14:53:50.407Z,32.83
2023-01-18T14:58:55.830Z,49.93
2023-01-18T15:04:01.295Z,46.60
2023-01-18T15:09:07.235Z,60.03
2023-01-18T15:14:20.147Z,58.20
2023-01-18T15:19:28.908Z,76.23
2023-01-18T15:24:39.603Z,70.83
2023-01-18T15:29:51.600Z,92.03
2023-01-18T15:34:56.063Z,91.80
2023-01-18T15:40:05.951Z,83.53
2023-01-18T15:45:22.538Z,94.30
2023-01-18T15:50:32.175Z,79.80
2023-01-18T15:55:50.980Z,77.00
2023-01-18T16:01:04.596Z,65.40
2023-01-18T16:06:12.445Z,91.57
2023-01-18T16:11:31.126Z,82.30
2023-01-18T16:16:42.300Z,107.20
2023-01-18T16:21:48.848Z,94.13
2023-01-18T16:26:51.876Z,83.70
2023-01-18T16:32:18.127Z,109.67
2023-01-18T16:37:21.733Z,80.10
2023-01-18T16:42:37.001Z,78.37
2023-01-18T16:47:40.188Z,98.13
2023-01-18T16:52:42.617Z,149.90
2023-01-18T16:57:45.542Z,125.07
2023-01-18T17:02:51.750Z,109.00
2023-01-18T17:07:54.223Z,92.13
2023-01-18T17:12:58.232Z,81.07
2023-01-18T17:18:02.250Z,71.90
2023-01-18T17:23:05.744Z,92.03
2023-01-18T17:28:08.690Z,86.27
2023-01-18T17:33:21.189Z,81.23
2023-01-18T17:38:27.106Z,80.00
2023-01-18T17:43:34.519Z,74.40
2023-01-18T17:48:37.662Z,72.63
2023-01-18T17:53:41.444Z,72.40
2023-01-18T17:58:48.562Z,135.30
2023-01-18T18:03:52.643Z,104.47
2023-01-18T18:08:55.393Z,97.57
2023-01-18T18:13:58.991Z,93.70
2023-01-18T18:19:01.743Z,86.20
2023-01-18T18:24:04.138Z,81.97
2023-01-18T18:29:06.541Z,93.97
2023-01-18T18:34:08.966Z,119.87
2023-01-18T18:39:11.296Z,85.00
2023-01-18T18:44:14.068Z,79.83
2023-01-18T18:49:16.460Z,74.40
2023-01-18T18:54:18.842Z,71.37
2023-01-18T18:59:21.184Z,77.40
2023-01-18T19:04:24.032Z,74.13
2023-01-18T19:09:26.394Z,80.20
2023-01-18T19:14:28.922Z,86.43
2023-01-18T19:19:31.678Z,104.10
2023-01-18T19:24:36.511Z,99.60
2023-01-18T19:29:39.424Z,106.17
2023-01-18T19:34:41.768Z,81.33
2023-01-18T19:39:44.100Z,96.13
2023-01-18T19:44:46.471Z,118.97
2023-01-18T19:49:48.929Z,139.37
2023-01-18T19:54:51.262Z,125.70
2023-01-18T19:59:53.705Z,92.23
2023-01-18T20:04:57.806Z,87.73
2023-01-18T20:10:00.162Z,85.07
2023-01-18T20:15:02.518Z,109.60
2023-01-18T20:20:05.768Z,103.47
2023-01-18T20:25:08.558Z,106.43
2023-01-18T20:30:11.634Z,112.70
2023-01-18T20:35:14.016Z,108.10
2023-01-18T20:40:16.600Z,118.70
2023-01-18T20:45:18.945Z,103.73
2023-01-18T20:50:23.284Z,110.33
2023-01-18T20:55:25.854Z,101.80
2023-01-18T21:00:28.671Z,90.93
2023-01-18T21:05:31.096Z,93.93
2023-01-18T21:10:38.747Z,103.80
2023-01-18T21:15:45.148Z,106.17
2023-01-18T21:20:55.198Z,103.63
2023-01-18T21:25:59.032Z,92.67
2023-01-18T21:31:01.421Z,103.13
2023-01-18T21:36:08.839Z,92.83
2023-01-18T21:41:30.346Z,88.17
2023-01-18T21:46:32.807Z,85.53
2023-01-18T21:51:53.633Z,104.03
2023-01-18T21:56:55.975Z,81.63
2023-01-18T22:01:58.423Z,70.90
2023-01-18T22:07:01.431Z,67.60
2023-01-18T22:12:03.979Z,88.73
2023-01-18T22:17:06.455Z,136.23
2023-01-18T22:22:09.465Z,118.07
2023-01-18T22:27:11.877Z,79.80
2023-01-18T22:32:14.376Z,92.00
2023-01-18T22:37:16.719Z,75.10
2023-01-18T22:42:21.873Z,60.23
2023-01-18T22:47:24.283Z,54.20
2023-01-18T22:52:26.620Z,45.53
2023-01-18T22:57:29.026Z,47.70
2023-01-18T23:02:33.379Z,56.53
2023-01-18T23:07:35.701Z,51.57
2023-01-18T23:12:38.467Z,48.27
2023-01-18T23:17:42.229Z,51.67
2023-01-18T23:22:45.924Z,43.17
2023-01-18T23:27:48.282Z,50.27
2023-01-18T23:32:50.695Z,42.77
2023-01-18T23:37:54.392Z,46.73
2023-01-18T23:43:15.276Z,45.50
2023-01-18T23:48:38.332Z,57.63
2023-01-18T23:53:59.112Z,50.60
2023-01-18T23:59:02.539Z,48.20
